This is the latest recevied weather packets stored in our database for station/object HB9FVK-10. If no packets are shown the sender has not sent any weather packets the latest 10 day(s).
| Time | Temp. | Humidity | Pressure | Rain* | Wind** | Luminosity | Snow |
|---|---|---|---|---|---|---|---|
| 1777758070 | 16.67° C | 67% | 1022.1 hPa | - | - | - | - |
| 1777755686 | 17.22° C | 65% | 1022 hPa | - | - | - | - |
| 1777755064 | 17.22° C | 65% | 1021.9 hPa | - | - | - | - |
| 1777752058 | 17.78° C | 64% | 1022 hPa | - | - | - | - |
| 1777746647 | 21.11° C | 56% | 1021.4 hPa | - | - | - | - |
| 1777742438 | 25.56° C | 38% | 1021.4 hPa | - | - | - | - |
| 1777741236 | 25.56° C | 37% | 1021.4 hPa | - | - | - | - |
| 1777738831 | 26.67° C | 33% | 1021.8 hPa | - | - | - | - |
| 1777723262 | 23.33° C | 39% | 1025 hPa | - | - | - | - |
| 1777722079 | 23.89° C | 41% | 1025.3 hPa | - | - | - | - |
| 1777719054 | 22.22° C | 45% | 1026.3 hPa | - | - | - | - |
| 1777712441 | 18.33° C | 53% | 1027.8 hPa | - | - | - | - |
| 1777711259 | 17.78° C | 54% | 1027.9 hPa | - | - | - | - |
| 1777708875 | 16.11° C | 58% | 1028.1 hPa | - | - | - | - |
| 1777703424 | 12.22° C | 71% | 1028.5 hPa | - | - | - | - |
| 1777694467 | 7.22° C | 85% | 1028.3 hPa | - | - | - | - |
| 1777691462 | 7.22° C | 85% | 1028.2 hPa | - | - | - | - |
| 1777690259 | 7.78° C | 84% | 1028.2 hPa | - | - | - | - |
| 1777689658 | 7.78° C | 84% | 1028.3 hPa | - | - | - | - |
| 1777689057 | 7.78° C | 84% | 1028.3 hPa | - | - | - | - |
| 1777687274 | 7.78° C | 83% | 1028.2 hPa | - | - | - | - |
| 1777677033 | 10° C | 74% | 1028.2 hPa | - | - | - | - |
| 1777676432 | 10.56° C | 72% | 1028 hPa | - | - | - | - |
| 1777675832 | 11.11° C | 70% | 1028 hPa | - | - | - | - |
| 1777669218 | 12.78° C | 63% | 1027.7 hPa | - | - | - | - |
* Rain since midnight (hover to see other rain measurements)
** Current wind speed in m/s (hover to see current wind gust speed)